createdAt,value
2019-04-14T00:01:59.185Z,10.50
2019-04-14T00:04:33.362Z,11.60
2019-04-14T00:07:03.594Z,11.93
2019-04-14T00:09:33.726Z,11.63
2019-04-14T00:12:06.285Z,11.73
2019-04-14T00:14:33.900Z,11.60
2019-04-14T00:17:04.173Z,12.30
2019-04-14T00:19:33.291Z,11.83
2019-04-14T00:22:03.279Z,12.80
2019-04-14T00:24:33.557Z,11.63
2019-04-14T00:27:02.791Z,12.67
2019-04-14T00:29:32.745Z,12.63
2019-04-14T00:32:02.984Z,13.03
2019-04-14T00:34:50.814Z,12.23
2019-04-14T00:37:40.230Z,13.27
2019-04-14T00:40:12.873Z,12.60
2019-04-14T00:43:03.480Z,12.77
2019-04-14T00:45:44.463Z,12.70
2019-04-14T00:48:17.405Z,13.00
2019-04-14T00:50:45.250Z,12.40
2019-04-14T00:53:14.381Z,12.07
2019-04-14T00:55:44.339Z,12.87
2019-04-14T00:58:13.490Z,12.87
2019-04-14T01:00:43.018Z,13.03
2019-04-14T01:03:12.087Z,13.17
2019-04-14T01:05:41.553Z,12.87
2019-04-14T01:08:10.527Z,12.47
2019-04-14T01:10:39.539Z,12.40
2019-04-14T01:13:10.841Z,13.03
2019-04-14T01:15:48.081Z,12.33
2019-04-14T01:18:10.075Z,12.63
2019-04-14T01:20:39.097Z,12.37
2019-04-14T01:23:08.451Z,12.63
2019-04-14T01:25:37.463Z,12.27
2019-04-14T01:28:06.813Z,12.90
2019-04-14T01:30:37.206Z,12.97
2019-04-14T01:33:07.508Z,11.87
2019-04-14T01:35:37.802Z,12.20
2019-04-14T01:38:07.889Z,12.13
2019-04-14T01:40:38.058Z,12.37
2019-04-14T01:43:08.081Z,11.87
2019-04-14T01:45:38.166Z,12.37
2019-04-14T01:48:08.346Z,12.70
2019-04-14T01:50:51.648Z,11.37
2019-04-14T01:53:42.400Z,11.67
2019-04-14T01:56:31.997Z,11.23
2019-04-14T02:01:34.617Z,12.00
2019-04-14T02:04:04.885Z,12.43
2019-04-14T02:06:35.558Z,12.47
2019-04-14T02:09:07.879Z,12.30
2019-04-14T02:11:37.706Z,11.40
2019-04-14T02:14:08.185Z,11.90
2019-04-14T02:16:44.112Z,11.97
2019-04-14T02:19:08.897Z,11.97
2019-04-14T02:21:38.888Z,11.10
2019-04-14T02:24:09.195Z,11.57
2019-04-14T02:26:39.430Z,11.87
2019-04-14T02:29:09.878Z,11.40
2019-04-14T02:32:07.140Z,10.83
2019-04-14T02:37:10.707Z,10.50
2019-04-14T02:39:42.475Z,10.53
2019-04-14T02:42:19.429Z,10.63
2019-04-14T02:44:45.736Z,10.73
2019-04-14T02:47:27.751Z,10.77
2019-04-14T02:49:44.573Z,10.60
2019-04-14T02:52:12.063Z,11.57
2019-04-14T02:57:19.041Z,10.87
2019-04-14T02:59:42.925Z,11.53
2019-04-14T03:02:23.198Z,11.90
2019-04-14T03:04:47.238Z,10.90
2019-04-14T03:07:54.163Z,10.93
2019-04-14T03:09:52.422Z,11.67
2019-04-14T03:12:16.364Z,11.37
2019-04-14T03:14:47.918Z,11.13
2019-04-14T03:17:38.322Z,11.13
2019-04-14T03:22:53.510Z,11.43
2019-04-14T03:25:30.176Z,10.90
2019-04-14T03:28:27.886Z,11.73
2019-04-14T03:31:25.429Z,11.43
2019-04-14T03:34:05.255Z,11.30
2019-04-14T03:38:40.276Z,11.27
2019-04-14T03:41:10.775Z,10.70
2019-04-14T03:46:19.362Z,11.17
2019-04-14T03:48:54.040Z,11.07
2019-04-14T03:53:32.118Z,10.00
2019-04-14T03:56:21.313Z,10.50
2019-04-14T03:58:51.141Z,11.23
2019-04-14T04:01:20.175Z,11.37
2019-04-14T04:03:50.551Z,11.53
2019-04-14T04:06:20.338Z,11.40
2019-04-14T04:08:49.286Z,11.43
2019-04-14T04:11:19.274Z,12.10
2019-04-14T04:13:48.447Z,12.70
2019-04-14T04:16:40.395Z,11.43
2019-04-14T04:19:18.258Z,11.37
2019-04-14T04:22:04.775Z,11.47
2019-04-14T04:24:37.153Z,11.63
2019-04-14T04:27:18.506Z,11.80
2019-04-14T04:30:03.801Z,11.97
2019-04-14T04:32:51.693Z,12.17
2019-04-14T04:35:32.549Z,11.80
2019-04-14T04:38:26.945Z,11.63
2019-04-14T04:40:57.137Z,10.90
2019-04-14T04:43:26.143Z,11.70
2019-04-14T04:45:55.963Z,11.97
2019-04-14T04:48:24.839Z,12.03
2019-04-14T04:50:54.217Z,11.73
2019-04-14T04:53:24.399Z,11.97
2019-04-14T04:55:54.555Z,11.33
2019-04-14T04:58:24.120Z,11.47
2019-04-14T05:00:54.951Z,11.30
2019-04-14T05:03:23.846Z,11.60
2019-04-14T05:06:09.248Z,12.60
2019-04-14T05:08:41.227Z,11.90
2019-04-14T05:11:21.602Z,11.97
2019-04-14T05:13:51.195Z,12.17
2019-04-14T05:16:21.227Z,12.07
2019-04-14T05:18:50.888Z,11.80
2019-04-14T05:21:19.914Z,11.93
2019-04-14T05:23:49.548Z,11.80
2019-04-14T05:26:19.807Z,13.00
2019-04-14T05:28:48.908Z,12.27
2019-04-14T05:31:18.606Z,12.60
2019-04-14T05:33:48.930Z,11.97
2019-04-14T05:36:19.072Z,11.63
2019-04-14T05:38:49.476Z,11.17
2019-04-14T05:41:18.599Z,11.33
2019-04-14T05:43:53.731Z,11.60
2019-04-14T05:46:18.539Z,12.53
2019-04-14T05:48:47.490Z,11.57
2019-04-14T05:51:19.011Z,11.60
2019-04-14T05:53:48.067Z,10.70
2019-04-14T05:56:17.159Z,11.20
2019-04-14T05:58:47.086Z,12.37
2019-04-14T06:01:16.478Z,11.30
2019-04-14T06:03:45.422Z,11.37
2019-04-14T06:06:14.383Z,11.20
2019-04-14T06:08:43.383Z,11.90
2019-04-14T06:11:12.469Z,11.30
2019-04-14T06:13:41.524Z,11.30
2019-04-14T06:16:10.599Z,11.23
2019-04-14T06:18:39.473Z,11.60
2019-04-14T06:21:08.511Z,11.53
2019-04-14T06:23:37.461Z,11.50
2019-04-14T06:26:06.590Z,10.40
2019-04-14T06:28:35.521Z,12.07
2019-04-14T06:31:23.612Z,11.40
2019-04-14T06:34:02.807Z,11.20
2019-04-14T06:37:05.988Z,11.90
2019-04-14T06:39:41.235Z,11.33
2019-04-14T06:42:10.095Z,11.87
2019-04-14T06:44:39.105Z,11.20
2019-04-14T06:47:08.030Z,11.27
2019-04-14T06:49:48.191Z,11.23
2019-04-14T06:52:07.651Z,10.63
2019-04-14T06:54:36.635Z,11.07
2019-04-14T06:57:05.615Z,9.93
2019-04-14T06:59:34.516Z,11.43
2019-04-14T07:02:03.596Z,10.83
2019-04-14T07:04:33.806Z,10.60
2019-04-14T07:07:02.775Z,11.27
2019-04-14T07:09:31.625Z,11.50
2019-04-14T07:12:00.692Z,11.23
2019-04-14T07:14:32.051Z,9.97
2019-04-14T07:17:00.464Z,9.90
2019-04-14T07:19:29.278Z,11.03
2019-04-14T07:21:58.128Z,10.63
2019-04-14T07:24:26.943Z,10.70
2019-04-14T07:26:55.858Z,10.23
2019-04-14T07:29:26.633Z,10.80
2019-04-14T07:32:17.343Z,10.63
2019-04-14T07:35:04.281Z,10.90
2019-04-14T07:37:47.008Z,10.13
2019-04-14T07:40:34.355Z,10.83
2019-04-14T07:43:13.668Z,11.07
2019-04-14T07:45:56.424Z,11.23
2019-04-14T07:48:35.932Z,11.37
2019-04-14T07:51:23.020Z,11.63
2019-04-14T07:53:58.948Z,10.60
2019-04-14T07:56:38.266Z,11.20
2019-04-14T07:59:32.220Z,10.73
2019-04-14T08:02:09.632Z,10.77
2019-04-14T08:04:42.963Z,10.97
2019-04-14T08:07:11.818Z,10.47
2019-04-14T08:09:40.712Z,10.43
2019-04-14T08:12:09.700Z,11.37
2019-04-14T08:14:38.616Z,10.20
2019-04-14T08:17:07.663Z,11.13
2019-04-14T08:19:36.501Z,11.50
2019-04-14T08:22:05.499Z,10.83
2019-04-14T08:24:34.355Z,10.83
2019-04-14T08:27:03.181Z,10.57
2019-04-14T08:29:32.773Z,10.67
2019-04-14T08:32:02.245Z,11.40
2019-04-14T08:34:31.485Z,11.57
2019-04-14T08:37:00.735Z,11.57
2019-04-14T08:39:29.663Z,10.87
2019-04-14T08:42:10.912Z,10.70
2019-04-14T08:44:50.569Z,10.23
2019-04-14T08:47:25.947Z,11.00
2019-04-14T08:50:05.958Z,10.77
2019-04-14T08:52:39.822Z,10.47
2019-04-14T08:55:13.767Z,10.77
2019-04-14T08:58:04.577Z,11.07
2019-04-14T09:00:40.354Z,10.80
2019-04-14T09:03:33.154Z,10.97
2019-04-14T09:06:10.283Z,11.07
2019-04-14T09:08:45.513Z,11.20
2019-04-14T09:11:14.618Z,10.50
2019-04-14T09:13:43.546Z,11.03
2019-04-14T09:16:12.401Z,10.67
2019-04-14T09:18:41.235Z,11.57
2019-04-14T09:21:10.088Z,11.43
2019-04-14T09:23:38.911Z,11.07
2019-04-14T09:26:07.826Z,11.10
2019-04-14T09:28:36.669Z,10.40
2019-04-14T09:31:05.666Z,11.00
2019-04-14T09:33:34.528Z,11.00
2019-04-14T09:36:03.406Z,10.70
2019-04-14T09:38:32.206Z,11.47
2019-04-14T09:41:01.145Z,11.20
2019-04-14T09:43:29.996Z,13.03
2019-04-14T09:45:58.851Z,12.33
2019-04-14T09:48:27.846Z,11.70
2019-04-14T09:51:04.812Z,12.03
2019-04-14T09:53:27.397Z,11.97
2019-04-14T09:55:56.324Z,12.03
2019-04-14T09:58:25.183Z,12.07
2019-04-14T10:00:54.091Z,11.40
2019-04-14T10:03:23.010Z,11.47
2019-04-14T10:05:51.931Z,12.40
2019-04-14T10:08:21.003Z,12.43
2019-04-14T10:10:49.974Z,13.17
2019-04-14T10:13:18.898Z,13.10
2019-04-14T10:15:47.842Z,11.97
2019-04-14T10:18:16.731Z,13.03
2019-04-14T10:20:45.653Z,12.37
2019-04-14T10:23:14.552Z,12.00
2019-04-14T10:25:43.399Z,12.63
2019-04-14T10:28:12.252Z,12.03
2019-04-14T10:30:41.179Z,12.20
2019-04-14T10:33:10.067Z,11.23
2019-04-14T10:35:38.954Z,11.70
2019-04-14T10:38:08.958Z,12.43
2019-04-14T10:40:39.243Z,11.47
2019-04-14T10:43:09.028Z,10.97
2019-04-14T10:45:37.967Z,11.30
2019-04-14T10:48:07.062Z,12.00
2019-04-14T10:50:35.945Z,11.30
2019-04-14T10:53:05.064Z,11.40
2019-04-14T10:55:34.056Z,11.40
2019-04-14T10:58:03.413Z,10.80
2019-04-14T11:00:32.260Z,11.27
2019-04-14T11:03:01.116Z,11.23
2019-04-14T11:05:34.567Z,11.00
2019-04-14T11:08:03.483Z,10.60
2019-04-14T11:10:32.303Z,10.13
2019-04-14T11:13:01.188Z,10.23
2019-04-14T11:15:30.156Z,9.40
2019-04-14T11:17:59.038Z,10.50
2019-04-14T11:20:28.026Z,10.20
2019-04-14T11:23:03.314Z,9.40
2019-04-14T11:25:27.467Z,9.40
2019-04-14T11:27:56.726Z,9.60
2019-04-14T11:30:25.814Z,9.60
2019-04-14T11:33:19.951Z,9.90
2019-04-14T11:35:59.770Z,9.50
2019-04-14T11:38:31.609Z,9.40
2019-04-14T11:41:02.478Z,9.13
2019-04-14T11:43:31.472Z,9.50
2019-04-14T11:46:03.576Z,9.20
2019-04-14T11:48:31.556Z,9.27
2019-04-14T11:51:00.462Z,9.57
2019-04-14T11:53:29.368Z,9.33
2019-04-14T11:55:58.365Z,8.83
2019-04-14T11:58:29.196Z,9.50
2019-04-14T12:01:19.188Z,9.60
2019-04-14T12:03:59.715Z,9.27
2019-04-14T12:06:50.538Z,10.20
2019-04-14T12:09:25.251Z,9.30
2019-04-14T12:11:54.327Z,9.57
2019-04-14T12:14:23.306Z,9.80
2019-04-14T12:16:52.346Z,9.27
2019-04-14T12:19:21.266Z,9.30
2019-04-14T12:21:50.127Z,9.27
2019-04-14T12:24:19.272Z,9.50
2019-04-14T12:26:48.219Z,9.90
2019-04-14T12:29:17.236Z,10.03
2019-04-14T12:31:46.582Z,9.43
2019-04-14T12:34:18.165Z,9.30
2019-04-14T12:36:46.537Z,10.20
2019-04-14T12:39:23.923Z,9.10
2019-04-14T12:41:58.415Z,8.73
2019-04-14T12:44:44.783Z,9.70
2019-04-14T12:47:36.576Z,10.00
2019-04-14T12:50:03.107Z,10.23
2019-04-14T12:52:32.044Z,9.23
2019-04-14T12:55:00.990Z,11.57
2019-04-14T12:57:34.477Z,10.70
2019-04-14T13:00:05.141Z,9.60
2019-04-14T13:02:37.040Z,9.97
2019-04-14T13:05:06.395Z,9.33
2019-04-14T13:07:36.875Z,11.20
2019-04-14T13:10:10.122Z,9.67
2019-04-14T13:12:39.318Z,9.63
2019-04-14T13:15:08.592Z,9.53
2019-04-14T13:17:37.804Z,9.50
2019-04-14T13:20:07.538Z,9.23
2019-04-14T13:22:37.591Z,9.53
2019-04-14T13:25:08.768Z,9.73
2019-04-14T13:27:37.987Z,9.47
2019-04-14T13:30:09.402Z,11.03
2019-04-14T13:32:38.535Z,9.87
2019-04-14T13:35:26.888Z,8.63
2019-04-14T13:37:56.011Z,9.17
2019-04-14T13:40:26.674Z,9.43
2019-04-14T13:42:55.700Z,10.80
2019-04-14T13:45:24.692Z,9.17
2019-04-14T13:47:53.768Z,11.47
2019-04-14T13:50:22.779Z,10.03
2019-04-14T13:52:51.797Z,11.17
2019-04-14T13:55:21.031Z,10.60
2019-04-14T13:57:50.204Z,10.57
2019-04-14T14:00:19.688Z,10.70
2019-04-14T14:02:48.819Z,15.57
2019-04-14T14:05:17.990Z,12.10
2019-04-14T14:07:47.223Z,11.13
2019-04-14T14:10:16.450Z,9.90
2019-04-14T14:12:52.300Z,10.30
2019-04-14T14:15:58.611Z,9.63
2019-04-14T14:18:34.767Z,11.33
2019-04-14T14:21:25.962Z,11.50
2019-04-14T14:24:14.210Z,10.47
2019-04-14T14:26:43.984Z,9.43
2019-04-14T14:29:12.978Z,10.47
2019-04-14T14:31:42.106Z,13.27
2019-04-14T14:34:11.353Z,9.47
2019-04-14T14:36:40.468Z,10.10
2019-04-14T14:39:10.651Z,9.57
2019-04-14T14:41:39.820Z,8.77
2019-04-14T14:44:08.958Z,9.27
2019-04-14T14:46:54.185Z,9.63
2019-04-14T14:49:34.870Z,8.00
2019-04-14T14:52:07.505Z,9.00
2019-04-14T14:54:36.439Z,7.93
2019-04-14T14:57:05.542Z,6.97
2019-04-14T14:59:34.573Z,5.97
2019-04-14T15:02:04.843Z,7.30
2019-04-14T15:04:33.911Z,5.83
2019-04-14T15:07:02.836Z,6.80
2019-04-14T15:09:31.748Z,7.47
2019-04-14T15:12:00.707Z,6.90
2019-04-14T15:14:29.847Z,6.23
2019-04-14T15:16:58.955Z,6.37
2019-04-14T15:19:27.998Z,6.30
2019-04-14T15:21:56.965Z,6.60
2019-04-14T15:24:26.124Z,6.20
2019-04-14T15:26:55.232Z,6.40
2019-04-14T15:29:24.234Z,6.73
2019-04-14T15:31:53.253Z,6.80
2019-04-14T15:34:22.255Z,6.30
2019-04-14T15:36:51.217Z,6.20
2019-04-14T15:39:20.219Z,6.87
2019-04-14T15:41:49.287Z,7.23
2019-04-14T15:44:18.196Z,6.27
2019-04-14T15:46:47.190Z,7.20
2019-04-14T15:49:16.263Z,6.63
2019-04-14T15:51:45.279Z,7.30
2019-04-14T15:54:14.577Z,7.30
2019-04-14T15:56:49.919Z,7.33
2019-04-14T15:59:29.644Z,7.43
2019-04-14T16:02:17.747Z,7.70
2019-04-14T16:05:08.514Z,7.50
2019-04-14T16:07:47.296Z,7.07
2019-04-14T16:10:23.337Z,7.37
2019-04-14T16:13:01.914Z,8.13
2019-04-14T16:15:39.639Z,7.80
2019-04-14T16:18:27.972Z,7.90
2019-04-14T16:20:56.855Z,8.17
2019-04-14T16:23:25.731Z,8.10
2019-04-14T16:25:59.598Z,8.70
2019-04-14T16:28:33.623Z,7.97
2019-04-14T16:31:33.644Z,8.83
2019-04-14T16:34:24.146Z,8.83
2019-04-14T16:36:53.164Z,9.13
2019-04-14T16:39:22.258Z,10.77
2019-04-14T16:41:51.214Z,9.47
2019-04-14T16:44:20.218Z,10.37
2019-04-14T16:46:49.382Z,9.93
2019-04-14T16:49:18.343Z,10.47
2019-04-14T16:51:56.946Z,10.77
2019-04-14T16:54:37.576Z,11.10
2019-04-14T16:57:28.749Z,10.77
2019-04-14T16:59:56.411Z,10.53
2019-04-14T17:02:25.355Z,10.87
2019-04-14T17:04:54.258Z,11.73
2019-04-14T17:07:23.254Z,12.03
2019-04-14T17:09:52.287Z,12.43
2019-04-14T17:12:21.271Z,12.63
2019-04-14T17:14:57.290Z,12.70
2019-04-14T17:17:51.455Z,12.13
2019-04-14T17:20:39.082Z,12.50
2019-04-14T17:23:30.033Z,12.50
2019-04-14T17:26:04.017Z,12.80
2019-04-14T17:28:50.521Z,13.00
2019-04-14T17:31:43.603Z,13.43
2019-04-14T17:34:20.904Z,13.30
2019-04-14T17:37:05.383Z,13.50
2019-04-14T17:39:39.866Z,13.53
2019-04-14T17:42:30.594Z,13.07
2019-04-14T17:45:15.883Z,13.20
2019-04-14T17:47:54.951Z,13.80
2019-04-14T17:50:44.378Z,13.70
2019-04-14T17:53:32.418Z,14.40
2019-04-14T17:56:14.533Z,12.97
2019-04-14T17:59:05.084Z,13.63
2019-04-14T18:01:53.223Z,14.13
2019-04-14T18:04:33.729Z,13.80
2019-04-14T18:07:16.655Z,13.53
2019-04-14T18:10:11.062Z,14.23
2019-04-14T18:15:58.368Z,14.23
2019-04-14T18:18:32.248Z,14.33
2019-04-14T18:21:04.427Z,13.90
2019-04-14T18:23:33.466Z,14.30
2019-04-14T18:26:02.527Z,15.10
2019-04-14T18:28:56.527Z,14.33
2019-04-14T18:31:33.531Z,14.30
2019-04-14T18:34:17.321Z,13.80
2019-04-14T18:37:04.339Z,14.10
2019-04-14T18:39:50.805Z,14.33
2019-04-14T18:42:23.495Z,13.90
2019-04-14T18:45:05.867Z,14.60
2019-04-14T18:47:49.641Z,14.40
2019-04-14T18:50:39.548Z,14.40
2019-04-14T18:53:21.383Z,14.67
2019-04-14T18:56:00.060Z,14.70
2019-04-14T18:58:41.917Z,14.10
2019-04-14T19:01:14.326Z,14.20
2019-04-14T19:03:43.348Z,14.33
2019-04-14T19:06:12.325Z,14.60
2019-04-14T19:08:41.333Z,15.00
2019-04-14T19:11:29.130Z,15.34
2019-04-14T19:13:58.287Z,14.57
2019-04-14T19:16:39.763Z,14.63
2019-04-14T19:19:05.193Z,15.50
2019-04-14T19:21:36.871Z,15.50
2019-04-14T19:24:05.968Z,15.93
2019-04-14T19:26:34.922Z,16.30
2019-04-14T19:29:03.974Z,14.97
2019-04-14T19:31:38.952Z,14.53
2019-04-14T19:34:08.171Z,15.80
2019-04-14T19:36:37.146Z,15.60
2019-04-14T19:39:08.438Z,16.47
2019-04-14T19:41:37.476Z,16.20
2019-04-14T19:44:06.440Z,16.30
2019-04-14T19:46:35.393Z,16.30
2019-04-14T19:49:04.499Z,16.57
2019-04-14T19:51:33.431Z,15.87
2019-04-14T19:54:02.421Z,17.17
2019-04-14T19:56:34.532Z,16.53
2019-04-14T19:59:03.838Z,15.63
2019-04-14T20:01:32.695Z,15.87
2019-04-14T20:04:01.682Z,15.70
2019-04-14T20:06:30.763Z,15.73
2019-04-14T20:08:59.739Z,15.83
2019-04-14T20:11:28.733Z,16.30
2019-04-14T20:13:57.794Z,16.37
2019-04-14T20:16:37.423Z,16.50
2019-04-14T20:19:20.042Z,17.03
2019-04-14T20:22:09.096Z,16.00
2019-04-14T20:24:43.403Z,15.40
2019-04-14T20:27:18.680Z,16.77
2019-04-14T20:29:50.844Z,16.43
2019-04-14T20:32:22.899Z,16.27
2019-04-14T20:34:51.803Z,16.80
2019-04-14T20:37:20.669Z,16.03
2019-04-14T20:39:49.567Z,16.90
2019-04-14T20:42:18.560Z,16.43
2019-04-14T20:44:47.399Z,16.47
2019-04-14T20:47:16.305Z,16.07
2019-04-14T20:49:45.156Z,16.80
2019-04-14T20:52:14.072Z,16.40
2019-04-14T20:54:42.919Z,16.53
2019-04-14T20:57:11.735Z,16.33
2019-04-14T20:59:40.628Z,17.03
2019-04-14T21:02:46.660Z,16.63
2019-04-14T21:05:33.060Z,17.50
2019-04-14T21:08:26.991Z,17.63
2019-04-14T21:11:03.123Z,16.80
2019-04-14T21:13:40.548Z,18.43
2019-04-14T21:16:13.838Z,17.67
2019-04-14T21:18:47.890Z,17.87
2019-04-14T21:21:38.910Z,17.57
2019-04-14T21:24:12.795Z,16.57
2019-04-14T21:26:59.262Z,17.20
2019-04-14T21:29:50.107Z,17.97
2019-04-14T21:32:25.331Z,16.67
2019-04-14T21:35:11.739Z,17.30
2019-04-14T21:37:49.587Z,18.30
2019-04-14T21:40:24.527Z,18.07
2019-04-14T21:42:53.423Z,18.00
2019-04-14T21:45:22.448Z,17.40
2019-04-14T21:47:51.358Z,18.33
2019-04-14T21:50:21.259Z,18.77
2019-04-14T21:52:50.195Z,19.77
2019-04-14T21:55:19.104Z,18.97
2019-04-14T21:58:12.913Z,19.73
2019-04-14T22:01:46.482Z,19.53
2019-04-14T22:04:34.596Z,19.53
2019-04-14T22:07:24.998Z,18.93
2019-04-14T22:09:56.551Z,19.30
2019-04-14T22:12:25.580Z,19.10
2019-04-14T22:14:54.424Z,19.87
2019-04-14T22:17:23.277Z,18.80
2019-04-14T22:19:52.117Z,19.53
2019-04-14T22:22:20.946Z,20.30
2019-04-14T22:24:49.887Z,20.50
2019-04-14T22:27:18.905Z,20.03
2019-04-14T22:29:47.821Z,19.47
2019-04-14T22:32:16.819Z,19.47
2019-04-14T22:34:45.644Z,19.33
2019-04-14T22:37:14.510Z,20.10
2019-04-14T22:39:43.415Z,19.97
2019-04-14T22:42:12.331Z,21.17
2019-04-14T22:44:41.236Z,19.77
2019-04-14T22:47:10.162Z,20.23
2019-04-14T22:49:38.995Z,20.73
2019-04-14T22:52:08.147Z,20.23
2019-04-14T22:54:37.114Z,20.77
2019-04-14T22:57:05.967Z,20.57
2019-04-14T22:59:34.883Z,20.83
2019-04-14T23:02:10.059Z,20.50
2019-04-14T23:04:45.283Z,20.50
2019-04-14T23:07:24.930Z,20.57
2019-04-14T23:09:59.432Z,21.53
2019-04-14T23:12:37.216Z,21.27
2019-04-14T23:15:16.108Z,21.83
2019-04-14T23:17:49.459Z,20.77
2019-04-14T23:20:40.447Z,20.93
2019-04-14T23:23:20.027Z,19.87
2019-04-14T23:25:48.935Z,19.47
2019-04-14T23:28:17.770Z,20.63
2019-04-14T23:30:46.638Z,21.20
2019-04-14T23:33:15.632Z,21.03
2019-04-14T23:35:44.521Z,20.50
2019-04-14T23:38:13.468Z,20.87
2019-04-14T23:40:42.372Z,21.00
2019-04-14T23:43:11.364Z,20.03
2019-04-14T23:45:40.379Z,20.80
2019-04-14T23:48:09.335Z,20.00
2019-04-14T23:50:38.182Z,21.43
2019-04-14T23:53:07.028Z,21.27
2019-04-14T23:55:35.971Z,20.37
2019-04-14T23:58:05.023Z,20.47
